createdAt,value
2023-01-12T00:01:05.743Z,85.0
2023-01-12T00:05:08.582Z,84.99
2023-01-12T00:10:08.544Z,84.99
2023-01-12T00:15:08.370Z,84.98
2023-01-12T00:20:08.166Z,84.98
2023-01-12T00:25:07.967Z,84.97
2023-01-12T00:30:07.787Z,84.97
2023-01-12T00:35:08.592Z,84.98
2023-01-12T00:40:08.410Z,84.96
2023-01-12T00:45:08.196Z,84.96
2023-01-12T00:50:07.994Z,84.95
2023-01-12T00:55:07.780Z,84.96
2023-01-12T01:00:08.609Z,84.95
2023-01-12T01:05:08.328Z,84.95
2023-01-12T01:10:08.174Z,84.96
2023-01-12T01:15:07.987Z,84.95
2023-01-12T01:20:07.811Z,84.94
2023-01-12T01:25:08.602Z,84.96
2023-01-12T01:30:08.413Z,84.95
2023-01-12T01:35:08.209Z,84.94
2023-01-12T01:40:08.024Z,84.93
2023-01-12T01:45:07.831Z,84.93
2023-01-12T01:50:08.608Z,84.95
2023-01-12T01:55:08.487Z,84.94
2023-01-12T02:00:08.289Z,84.92
2023-01-12T02:05:08.076Z,84.93
2023-01-12T02:10:07.890Z,84.95
2023-01-12T02:15:08.683Z,84.92
2023-01-12T02:20:08.480Z,84.92
2023-01-12T02:25:08.288Z,84.93
2023-01-12T02:30:08.088Z,84.93
2023-01-12T02:35:07.885Z,84.91
2023-01-12T02:40:08.719Z,84.91
2023-01-12T02:45:18.519Z,84.93
2023-01-12T02:50:08.472Z,84.93
2023-01-12T02:55:08.326Z,84.95
2023-01-12T03:00:08.187Z,84.94
2023-01-12T03:05:08.037Z,84.92
2023-01-12T03:10:07.856Z,84.92
2023-01-12T03:15:08.630Z,84.92
2023-01-12T03:20:08.425Z,84.94
2023-01-12T03:25:08.207Z,84.92
2023-01-12T03:30:08.095Z,84.94
2023-01-12T03:35:07.907Z,84.94
2023-01-12T03:40:08.722Z,84.94
2023-01-12T03:45:08.531Z,84.96
2023-01-12T03:50:08.373Z,84.95
2023-01-12T03:55:08.179Z,84.93
2023-01-12T04:00:07.959Z,84.95
2023-01-12T04:05:07.791Z,84.94
2023-01-12T04:10:08.727Z,84.93
2023-01-12T04:15:08.501Z,84.93
2023-01-12T04:20:08.265Z,84.96
2023-01-12T04:25:09.775Z,84.93
2023-01-12T04:30:07.772Z,84.93
2023-01-12T04:35:08.591Z,84.92
2023-01-12T04:40:08.455Z,84.94
2023-01-12T04:45:08.241Z,84.93
2023-01-12T04:50:08.040Z,84.94
2023-01-12T04:55:07.817Z,84.94
2023-01-12T05:00:08.592Z,84.93
2023-01-12T05:05:02.731Z,84.94
2023-01-12T05:10:02.886Z,84.94
2023-01-12T05:15:02.962Z,84.94
2023-01-12T05:20:02.072Z,84.95
2023-01-12T05:25:01.976Z,84.95
2023-01-12T05:30:02.815Z,84.95
2023-01-12T05:35:03.120Z,84.96
2023-01-12T05:40:02.416Z,84.94
2023-01-12T05:45:02.404Z,84.98
2023-01-12T05:50:02.769Z,84.98
2023-01-12T05:55:03.762Z,84.97
2023-01-12T06:00:03.011Z,84.96
2023-01-12T06:05:02.332Z,84.97
2023-01-12T06:10:02.559Z,84.96
2023-01-12T06:15:02.836Z,84.97
2023-01-12T06:20:03.115Z,84.99
2023-01-12T06:25:02.609Z,84.96
2023-01-12T06:30:02.788Z,85.01
2023-01-12T06:35:13.973Z,85.0
2023-01-12T06:40:02.568Z,84.98
2023-01-12T06:45:02.644Z,84.98
2023-01-12T06:50:02.993Z,84.98
2023-01-12T06:55:02.161Z,84.96
2023-01-12T07:00:02.373Z,84.96
2023-01-12T07:05:02.479Z,84.97
2023-01-12T07:10:02.502Z,84.97
2023-01-12T07:15:02.500Z,84.96
2023-01-12T07:20:02.634Z,84.96
2023-01-12T07:25:02.731Z,84.95
2023-01-12T07:30:02.726Z,84.98
2023-01-12T07:35:02.750Z,84.96
2023-01-12T07:40:02.922Z,84.95
2023-01-12T07:45:03.197Z,84.98
2023-01-12T07:50:03.048Z,84.95
2023-01-12T07:55:02.186Z,84.96
2023-01-12T08:00:02.316Z,84.97
2023-01-12T08:05:02.547Z,84.95
2023-01-12T08:10:03.306Z,84.95
2023-01-12T08:15:02.530Z,84.95
2023-01-12T08:20:02.650Z,84.94
2023-01-12T08:25:02.735Z,84.95
2023-01-12T08:30:03.451Z,84.95
2023-01-12T08:35:02.515Z,84.92
2023-01-12T08:40:02.739Z,84.93
2023-01-12T08:45:06.092Z,84.93
2023-01-12T08:50:02.445Z,84.91
2023-01-12T08:55:02.549Z,84.93
2023-01-12T09:00:02.660Z,84.92
2023-01-12T09:05:02.766Z,84.91
2023-01-12T09:10:03.175Z,84.9
2023-01-12T09:15:02.899Z,84.91
2023-01-12T09:20:03.127Z,84.89
2023-01-12T09:25:02.640Z,84.87
2023-01-12T09:30:02.820Z,84.88
2023-01-12T09:35:02.947Z,84.88
2023-01-12T09:40:02.157Z,84.85
2023-01-12T09:45:02.330Z,84.87
2023-01-12T09:50:11.001Z,84.87
2023-01-12T09:55:03.188Z,84.86
2023-01-12T10:00:02.545Z,84.87
2023-01-12T10:05:02.521Z,84.85
2023-01-12T10:10:02.734Z,84.84
2023-01-12T10:15:02.863Z,84.85
2023-01-12T10:20:03.104Z,84.84
2023-01-12T10:25:02.245Z,84.87
2023-01-12T10:30:02.607Z,84.85
2023-01-12T10:35:02.769Z,84.84
2023-01-12T10:40:03.219Z,84.84
2023-01-12T10:45:02.464Z,84.84
2023-01-12T10:50:04.659Z,84.85
2023-01-12T10:55:03.879Z,84.84
2023-01-12T11:00:02.945Z,84.83
2023-01-12T11:05:03.290Z,84.82
2023-01-12T11:10:02.409Z,84.84
2023-01-12T11:15:12.558Z,84.82
2023-01-12T11:20:02.704Z,84.82
2023-01-12T11:25:03.200Z,84.83
2023-01-12T11:30:02.720Z,84.81
2023-01-12T11:35:04.704Z,84.81
2023-01-12T11:40:02.913Z,84.82
2023-01-12T11:45:03.001Z,84.8
2023-01-12T11:50:02.148Z,84.79
2023-01-12T11:55:02.211Z,84.8
2023-01-12T12:00:13.339Z,84.79
2023-01-12T12:05:02.420Z,84.77
2023-01-12T12:10:02.554Z,84.75
2023-01-12T12:15:02.556Z,84.75
2023-01-12T12:20:02.675Z,84.75
2023-01-12T12:25:03.149Z,84.77
2023-01-12T12:30:02.291Z,84.77
2023-01-12T12:35:03.119Z,84.75
2023-01-12T12:40:02.831Z,84.81
2023-01-12T12:45:03.841Z,84.78
2023-01-12T12:50:03.100Z,84.75
2023-01-12T12:55:02.230Z,84.76
2023-01-12T13:00:02.410Z,84.77
2023-01-12T13:05:05.200Z,84.78
2023-01-12T13:10:09.620Z,84.76
2023-01-12T13:15:12.717Z,84.78
2023-01-12T13:20:08.491Z,84.77
2023-01-12T13:25:02.909Z,84.8
2023-01-12T13:30:03.072Z,84.78
2023-01-12T13:35:02.408Z,84.78
2023-01-12T13:40:02.867Z,84.8
2023-01-12T13:45:03.211Z,84.78
2023-01-12T13:50:03.155Z,84.8
2023-01-12T13:55:02.330Z,84.79
2023-01-12T14:00:10.219Z,84.78
2023-01-12T14:05:02.447Z,84.8
2023-01-12T14:10:03.620Z,84.81
2023-01-12T14:15:03.200Z,84.79
2023-01-12T14:20:02.606Z,84.82
2023-01-12T14:25:05.204Z,84.83
2023-01-12T14:30:03.443Z,84.82
2023-01-12T14:35:02.990Z,84.81
2023-01-12T14:40:04.212Z,84.81
2023-01-12T14:45:09.314Z,84.83
2023-01-12T14:50:13.080Z,84.86
2023-01-12T14:55:02.344Z,84.83
2023-01-12T15:00:02.378Z,84.84
2023-01-12T15:05:02.928Z,84.83
2023-01-12T15:10:02.313Z,84.86
2023-01-12T15:15:03.544Z,84.85
2023-01-12T15:20:02.904Z,84.84
2023-01-12T15:25:02.980Z,84.86
2023-01-12T15:30:02.410Z,84.86
2023-01-12T15:35:02.374Z,84.87
2023-01-12T15:40:02.436Z,84.87
2023-01-12T15:45:03.273Z,84.9
2023-01-12T15:50:02.518Z,84.9
2023-01-12T15:55:02.664Z,84.89
2023-01-12T16:00:03.425Z,84.9
2023-01-12T16:05:02.381Z,84.9
2023-01-12T16:10:02.497Z,84.92
2023-01-12T16:15:02.601Z,84.93
2023-01-12T16:20:02.660Z,84.92
2023-01-12T16:25:03.317Z,84.92
2023-01-12T16:30:02.423Z,84.93
2023-01-12T16:35:02.471Z,84.93
2023-01-12T16:40:02.678Z,84.95
2023-01-12T16:45:03.704Z,84.95
2023-01-12T16:50:02.779Z,84.98
2023-01-12T16:55:02.935Z,84.96
2023-01-12T17:00:03.372Z,84.95
2023-01-12T17:05:02.578Z,84.96
2023-01-12T17:10:03.514Z,84.96
2023-01-12T17:15:02.675Z,84.97
2023-01-12T17:20:03.389Z,84.97
2023-01-12T17:25:02.684Z,84.99
2023-01-12T17:30:03.004Z,84.98
2023-01-12T17:35:02.585Z,84.99
2023-01-12T17:40:02.862Z,85.01
2023-01-12T17:45:03.256Z,85.0
2023-01-12T17:50:02.433Z,85.0
2023-01-12T17:55:03.625Z,85.01
2023-01-12T18:00:02.955Z,84.99
2023-01-12T18:05:04.019Z,84.98
2023-01-12T18:10:02.115Z,85.0
2023-01-12T18:15:03.276Z,85.01
2023-01-12T18:20:02.227Z,85.02
2023-01-12T18:25:02.107Z,85.03
2023-01-12T18:30:02.170Z,85.02
2023-01-12T18:35:02.899Z,85.03
2023-01-12T18:40:03.038Z,85.02
2023-01-12T18:45:02.582Z,85.02
2023-01-12T18:50:02.501Z,85.02
2023-01-12T18:55:02.830Z,85.04
2023-01-12T19:00:02.934Z,85.03
2023-01-12T19:05:05.685Z,85.03
2023-01-12T19:10:03.103Z,85.03
2023-01-12T19:15:03.266Z,85.05
2023-01-12T19:20:02.591Z,85.04
2023-01-12T19:25:02.695Z,85.05
2023-01-12T19:30:03.028Z,85.03
2023-01-12T19:35:10.629Z,85.05
2023-01-12T19:40:02.797Z,85.04
2023-01-12T19:45:03.107Z,85.05
2023-01-12T19:50:02.333Z,85.05
2023-01-12T19:55:02.451Z,85.06
2023-01-12T20:00:02.736Z,85.07
2023-01-12T20:05:03.343Z,85.07
2023-01-12T20:10:03.124Z,85.06
2023-01-12T20:15:03.890Z,85.05
2023-01-12T20:20:07.438Z,85.07
2023-01-12T20:25:03.387Z,85.05
2023-01-12T20:30:02.699Z,85.06
2023-01-12T20:35:03.118Z,85.06
2023-01-12T20:40:02.354Z,85.07
2023-01-12T20:45:02.484Z,85.06
2023-01-12T20:50:02.444Z,85.07
2023-01-12T20:55:04.578Z,85.07
2023-01-12T21:00:05.879Z,85.06
2023-01-12T21:05:02.903Z,85.09
2023-01-12T21:10:03.523Z,85.09
2023-01-12T21:15:03.489Z,85.09
2023-01-12T21:20:02.656Z,85.08
2023-01-12T21:25:02.632Z,85.07
2023-01-12T21:30:04.616Z,85.07
2023-01-12T21:35:02.802Z,85.08
2023-01-12T21:40:02.852Z,85.1
2023-01-12T21:45:03.539Z,85.09
2023-01-12T21:50:03.072Z,85.1
2023-01-12T21:55:02.055Z,85.1
2023-01-12T22:00:02.644Z,85.1
2023-01-12T22:05:15.503Z,85.1
2023-01-12T22:10:08.389Z,85.11
2023-01-12T22:15:08.193Z,85.09
2023-01-12T22:20:08.043Z,85.1
2023-01-12T22:25:07.863Z,85.09
2023-01-12T22:30:08.678Z,85.1
2023-01-12T22:35:08.453Z,85.12
2023-01-12T22:40:08.246Z,85.11
2023-01-12T22:45:08.058Z,85.1
2023-01-12T22:50:07.868Z,85.11
2023-01-12T22:55:08.684Z,85.12
2023-01-12T23:00:08.495Z,85.13
2023-01-12T23:05:08.241Z,85.13
2023-01-12T23:10:08.057Z,85.14
2023-01-12T23:15:07.870Z,85.14
2023-01-12T23:20:08.668Z,85.13
2023-01-12T23:25:08.438Z,85.15
2023-01-12T23:30:08.248Z,85.16
2023-01-12T23:35:08.002Z,85.13
2023-01-12T23:40:07.775Z,85.18
2023-01-12T23:45:08.522Z,85.18
2023-01-12T23:50:08.283Z,85.19
2023-01-12T23:55:08.066Z,85.2
